createdAt,value
2023-01-11T00:01:12.698Z,-0.54
2023-01-11T00:03:41.058Z,-0.59
2023-01-11T00:06:10.815Z,-0.65
2023-01-11T00:08:39.751Z,-0.70
2023-01-11T00:11:14.253Z,-0.74
2023-01-11T00:13:45.095Z,-0.86
2023-01-11T00:16:13.992Z,-0.83
2023-01-11T00:18:42.767Z,-0.81
2023-01-11T00:21:12.281Z,-0.81
2023-01-11T00:23:40.683Z,-0.85
2023-01-11T00:26:11.922Z,-0.88
2023-01-11T00:28:40.660Z,-0.90
2023-01-11T00:31:36.161Z,-0.92
2023-01-11T00:34:05.144Z,-0.95
2023-01-11T00:36:34.976Z,-0.95
2023-01-11T00:39:04.033Z,-0.96
2023-01-11T00:41:49.787Z,-1.00
2023-01-11T00:44:35.798Z,-0.99
2023-01-11T00:47:29.632Z,-1.01
2023-01-11T00:49:58.181Z,-1.06
2023-01-11T00:52:26.846Z,-1.11
2023-01-11T00:54:55.492Z,-1.25
2023-01-11T00:57:24.192Z,-1.26
2023-01-11T00:59:52.689Z,-1.28
2023-01-11T01:02:22.854Z,-1.33
2023-01-11T01:04:51.791Z,-1.35
2023-01-11T01:07:20.279Z,-1.35
2023-01-11T01:09:48.683Z,-1.32
2023-01-11T01:12:37.825Z,-1.36
2023-01-11T01:15:06.241Z,-1.32
2023-01-11T01:17:38.495Z,-1.35
2023-01-11T01:20:08.674Z,-1.37
2023-01-11T01:22:37.377Z,-1.36
2023-01-11T01:25:06.603Z,-1.36
2023-01-11T01:27:35.325Z,-1.36
2023-01-11T01:30:04.223Z,-1.38
2023-01-11T01:32:32.823Z,-1.37
2023-01-11T01:38:46.652Z,-1.33
2023-01-11T01:41:15.543Z,-1.33
2023-01-11T01:43:50.072Z,-1.42
2023-01-11T01:46:19.456Z,-1.46
2023-01-11T01:48:51.031Z,-1.49
2023-01-11T01:51:21.716Z,-1.53
2023-01-11T01:53:53.770Z,-1.55
2023-01-11T01:56:27.281Z,-1.57
2023-01-11T01:59:20.722Z,-1.61
2023-01-11T02:01:48.513Z,-1.65
2023-01-11T02:04:22.363Z,-1.71
2023-01-11T02:06:51.797Z,-1.70
2023-01-11T02:09:27.453Z,-1.76
2023-01-11T02:11:57.141Z,-1.75
2023-01-11T02:14:29.067Z,-1.79
2023-01-11T02:16:57.609Z,-1.76
2023-01-11T02:19:36.454Z,-1.77
2023-01-11T02:22:35.546Z,-1.80
2023-01-11T02:25:35.882Z,-1.82
2023-01-11T02:28:09.932Z,-1.81
2023-01-11T02:30:44.599Z,-1.82
2023-01-11T02:33:20.064Z,-1.85
2023-01-11T02:35:53.821Z,-1.88
2023-01-11T02:38:25.709Z,-1.91
2023-01-11T02:40:57.781Z,-1.96
2023-01-11T02:43:48.658Z,-1.96
2023-01-11T02:46:21.706Z,-2.11
2023-01-11T02:48:54.484Z,-2.15
2023-01-11T02:51:27.912Z,-2.12
2023-01-11T02:53:57.964Z,-2.19
2023-01-11T02:56:29.552Z,-2.13
2023-01-11T02:59:01.212Z,-2.08
2023-01-11T03:01:29.700Z,-2.03
2023-01-11T03:03:59.124Z,-2.03
2023-01-11T03:06:29.539Z,-2.03
2023-01-11T03:09:16.336Z,-2.06
2023-01-11T03:12:20.518Z,-2.06
2023-01-11T03:15:01.352Z,-2.06
2023-01-11T03:17:38.704Z,-2.07
2023-01-11T03:20:11.519Z,-2.08
2023-01-11T03:22:45.432Z,-2.05
2023-01-11T03:25:19.123Z,-2.06
2023-01-11T03:28:03.690Z,-2.06
2023-01-11T03:30:37.309Z,-2.10
2023-01-11T03:33:10.651Z,-2.10
2023-01-11T03:35:45.654Z,-2.08
2023-01-11T03:38:19.448Z,-2.11
2023-01-11T03:40:49.557Z,-2.13
2023-01-11T03:43:20.442Z,-2.12
2023-01-11T03:45:54.860Z,-2.14
2023-01-11T03:48:26.963Z,-2.14
2023-01-11T03:50:55.916Z,-2.11
2023-01-11T03:53:25.510Z,-2.07
2023-01-11T03:55:56.952Z,-2.06
2023-01-11T03:58:28.438Z,-2.07
2023-01-11T04:00:59.606Z,-2.04
2023-01-11T04:03:28.860Z,-2.01
2023-01-11T04:06:01.067Z,-2.01
2023-01-11T04:08:31.178Z,-2.02
2023-01-11T04:11:00.211Z,-2.02
2023-01-11T04:13:28.795Z,-2.01
2023-01-11T04:15:59.211Z,-2.03
2023-01-11T04:18:28.035Z,-2.06
2023-01-11T04:20:56.666Z,-2.05
2023-01-11T04:23:24.985Z,-2.57
2023-01-11T04:25:53.460Z,-2.07
2023-01-11T04:28:21.952Z,-2.07
2023-01-11T04:30:59.151Z,-2.06
2023-01-11T04:33:28.943Z,-2.07
2023-01-11T04:36:06.322Z,-2.23
2023-01-11T04:38:34.795Z,-2.09
2023-01-11T04:41:23.396Z,-2.10
2023-01-11T04:43:52.097Z,-2.11
2023-01-11T04:46:20.851Z,-2.10
2023-01-11T04:48:53.632Z,-2.13
2023-01-11T04:51:24.367Z,-2.16
2023-01-11T04:57:01.824Z,-2.21
2023-01-11T04:59:30.708Z,-2.21
2023-01-11T05:02:33.283Z,-2.20
2023-01-11T05:05:03.276Z,-2.22
2023-01-11T05:07:32.179Z,-2.19
2023-01-11T05:10:01.190Z,-2.17
2023-01-11T05:12:30.469Z,-2.13
2023-01-11T05:14:59.423Z,-2.08
2023-01-11T05:17:30.307Z,-2.04
2023-01-11T05:20:03.539Z,-2.00
2023-01-11T05:22:32.089Z,-1.95
2023-01-11T05:25:01.139Z,-1.92
2023-01-11T05:27:30.320Z,-1.88
2023-01-11T05:29:58.896Z,-1.86
2023-01-11T05:32:28.566Z,-1.79
2023-01-11T05:34:57.096Z,-1.73
2023-01-11T05:37:27.200Z,-1.66
2023-01-11T05:39:55.605Z,-1.64
2023-01-11T05:42:30.675Z,-1.63
2023-01-11T05:45:16.585Z,-1.79
2023-01-11T05:47:47.214Z,-1.56
2023-01-11T05:50:15.857Z,-1.49
2023-01-11T05:52:46.027Z,-1.44
2023-01-11T05:55:14.866Z,-1.45
2023-01-11T05:57:44.339Z,-1.40
2023-01-11T06:00:14.467Z,-1.38
2023-01-11T06:02:43.653Z,-1.36
2023-01-11T06:05:12.137Z,-1.36
2023-01-11T06:07:40.755Z,-1.45
2023-01-11T06:10:12.349Z,-1.49
2023-01-11T06:12:44.116Z,-1.50
2023-01-11T06:15:15.633Z,-1.47
2023-01-11T06:17:44.140Z,-1.51
2023-01-11T06:20:13.949Z,-1.51
2023-01-11T06:22:42.563Z,-1.46
2023-01-11T06:25:12.895Z,-1.42
2023-01-11T06:27:42.091Z,-1.37
2023-01-11T06:30:11.925Z,-1.35
2023-01-11T06:32:40.950Z,-1.51
2023-01-11T06:35:10.135Z,-1.32
2023-01-11T06:37:38.710Z,-1.30
2023-01-11T06:40:08.143Z,-1.28
2023-01-11T06:42:38.567Z,-1.29
2023-01-11T06:45:08.775Z,-1.32
2023-01-11T06:47:37.485Z,-1.25
2023-01-11T06:50:07.798Z,-1.27
2023-01-11T06:52:36.921Z,-1.21
2023-01-11T06:56:19.318Z,-1.13
2023-01-11T06:58:49.782Z,-1.06
2023-01-11T07:01:20.161Z,-1.05
2023-01-11T07:03:48.840Z,-1.00
2023-01-11T07:06:17.728Z,-0.97
2023-01-11T07:08:46.689Z,-0.89
2023-01-11T07:11:17.390Z,-0.84
2023-01-11T07:13:46.244Z,-0.74
2023-01-11T07:16:17.599Z,-0.71
2023-01-11T07:18:46.869Z,-0.60
2023-01-11T07:21:15.815Z,-0.56
2023-01-11T07:23:45.084Z,-0.55
2023-01-11T07:26:14.535Z,-0.55
2023-01-11T07:28:43.145Z,-0.57
2023-01-11T07:31:11.901Z,-0.63
2023-01-11T07:33:41.987Z,-0.65
2023-01-11T07:36:11.121Z,-0.78
2023-01-11T07:38:39.716Z,-0.79
2023-01-11T07:41:23.743Z,-0.78
2023-01-11T07:43:52.281Z,-0.71
2023-01-11T07:46:21.007Z,-0.66
2023-01-11T07:48:51.381Z,-0.63
2023-01-11T07:51:25.617Z,-0.63
2023-01-11T07:53:54.191Z,-0.56
2023-01-11T07:56:35.153Z,-0.48
2023-01-11T07:59:03.908Z,-0.47
2023-01-11T08:01:32.380Z,-0.43
2023-01-11T08:04:02.124Z,-0.38
2023-01-11T08:06:33.463Z,-0.30
2023-01-11T08:09:02.319Z,-0.20
2023-01-11T08:11:48.104Z,-0.07
2023-01-11T08:14:34.222Z,0.02
2023-01-11T08:17:02.889Z,0.12
2023-01-11T08:19:32.723Z,0.18
2023-01-11T08:22:01.526Z,0.30
2023-01-11T08:24:30.683Z,0.48
2023-01-11T08:27:00.304Z,0.70
2023-01-11T08:29:28.984Z,1.02
2023-01-11T08:32:01.064Z,1.26
2023-01-11T08:34:34.642Z,1.62
2023-01-11T08:37:03.191Z,1.83
2023-01-11T08:39:32.111Z,2.00
2023-01-11T08:42:03.269Z,2.19
2023-01-11T08:44:35.130Z,2.31
2023-01-11T08:47:04.292Z,2.69
2023-01-11T08:49:34.608Z,3.08
2023-01-11T08:52:03.484Z,3.45
2023-01-11T08:54:32.190Z,3.54
2023-01-11T08:57:00.879Z,3.67
2023-01-11T08:59:32.625Z,3.72
2023-01-11T09:02:02.928Z,3.66
2023-01-11T09:04:31.740Z,3.82
2023-01-11T09:07:02.292Z,3.90
2023-01-11T09:09:31.394Z,4.11
2023-01-11T09:12:05.480Z,4.17
2023-01-11T09:14:34.627Z,4.13
2023-01-11T09:17:03.249Z,4.03
2023-01-11T09:19:33.743Z,3.92
2023-01-11T09:22:03.726Z,3.95
2023-01-11T09:24:32.339Z,4.00
2023-01-11T09:27:01.444Z,4.05
2023-01-11T09:30:02.981Z,4.32
2023-01-11T09:32:33.805Z,4.48
2023-01-11T09:35:03.419Z,4.54
2023-01-11T09:37:33.499Z,4.61
2023-01-11T09:40:02.260Z,4.80
2023-01-11T09:42:37.782Z,5.06
2023-01-11T09:45:13.879Z,5.41
2023-01-11T09:47:45.999Z,5.76
2023-01-11T09:50:20.090Z,6.12
2023-01-11T09:52:53.183Z,6.27
2023-01-11T09:55:28.884Z,6.40
2023-01-11T09:58:04.588Z,6.44
2023-01-11T10:00:53.440Z,6.44
2023-01-11T10:03:45.485Z,6.59
2023-01-11T10:06:21.806Z,6.88
2023-01-11T10:18:28.360Z,6.77
2023-01-11T10:18:30.185Z,6.86
2023-01-11T10:21:05.165Z,6.97
2023-01-11T10:24:00.126Z,7.02
2023-01-11T10:27:06.267Z,7.14
2023-01-11T10:29:53.882Z,7.20
2023-01-11T10:32:34.906Z,7.37
2023-01-11T10:35:29.457Z,7.37
2023-01-11T10:38:21.880Z,7.38
2023-01-11T10:41:08.581Z,7.04
2023-01-11T10:43:41.586Z,6.68
2023-01-11T10:46:15.671Z,6.91
2023-01-11T10:48:44.823Z,6.95
2023-01-11T10:51:19.931Z,6.93
2023-01-11T10:53:58.094Z,6.46
2023-01-11T10:57:20.406Z,6.61
2023-01-11T11:00:03.646Z,6.26
2023-01-11T11:02:49.893Z,6.37
2023-01-11T11:05:27.969Z,6.09
2023-01-11T11:08:00.040Z,5.95
2023-01-11T11:10:33.553Z,5.97
2023-01-11T11:13:08.552Z,6.11
2023-01-11T11:15:44.966Z,6.12
2023-01-11T11:18:13.704Z,6.35
2023-01-11T11:20:44.279Z,6.42
2023-01-11T11:23:16.811Z,6.38
2023-01-11T11:25:49.515Z,6.62
2023-01-11T11:28:34.355Z,6.83
2023-01-11T11:31:06.422Z,7.45
2023-01-11T11:33:36.691Z,8.47
2023-01-11T11:36:07.690Z,9.30
2023-01-11T11:38:38.306Z,9.57
2023-01-11T11:41:09.020Z,9.60
2023-01-11T11:43:43.499Z,9.37
2023-01-11T11:46:27.320Z,9.73
2023-01-11T11:49:16.260Z,10.00
2023-01-11T11:51:46.593Z,10.07
2023-01-11T11:54:22.085Z,10.21
2023-01-11T11:56:50.874Z,10.26
2023-01-11T11:59:22.099Z,9.68
2023-01-11T12:02:00.973Z,10.04
2023-01-11T12:04:36.473Z,10.15
2023-01-11T12:07:10.028Z,10.25
2023-01-11T12:09:40.473Z,10.06
2023-01-11T12:12:09.531Z,10.30
2023-01-11T12:15:29.257Z,10.14
2023-01-11T12:18:26.350Z,9.95
2023-01-11T12:20:55.610Z,9.72
2023-01-11T12:23:25.626Z,9.50
2023-01-11T12:26:05.583Z,9.52
2023-01-11T12:28:59.181Z,9.51
2023-01-11T12:31:33.189Z,9.39
2023-01-11T12:34:12.412Z,9.05
2023-01-11T12:36:48.093Z,8.90
2023-01-11T12:39:21.154Z,8.73
2023-01-11T12:41:58.275Z,8.64
2023-01-11T12:44:39.863Z,8.59
2023-01-11T12:47:22.541Z,8.48
2023-01-11T12:49:57.609Z,8.36
2023-01-11T12:52:42.870Z,8.42
2023-01-11T12:55:23.883Z,8.35
2023-01-11T12:58:02.294Z,8.30
2023-01-11T13:00:46.465Z,8.36
2023-01-11T13:03:50.868Z,8.34
2023-01-11T13:06:25.461Z,8.26
2023-01-11T13:09:00.493Z,8.23
2023-01-11T13:11:40.339Z,8.30
2023-01-11T13:14:24.571Z,8.40
2023-01-11T13:17:01.470Z,8.45
2023-01-11T13:19:37.687Z,8.40
2023-01-11T13:22:13.792Z,8.21
2023-01-11T13:24:45.305Z,8.13
2023-01-11T13:27:16.694Z,7.98
2023-01-11T13:29:47.815Z,7.84
2023-01-11T13:32:20.329Z,7.70
2023-01-11T13:34:51.447Z,7.55
2023-01-11T13:37:24.799Z,7.50
2023-01-11T13:39:56.698Z,7.40
2023-01-11T13:42:31.329Z,7.36
2023-01-11T13:45:03.367Z,7.26
2023-01-11T13:47:37.034Z,7.17
2023-01-11T13:50:18.139Z,7.07
2023-01-11T13:52:56.256Z,7.01
2023-01-11T13:55:27.650Z,6.95
2023-01-11T13:57:59.938Z,6.91
2023-01-11T14:00:33.986Z,6.85
2023-01-11T14:03:17.342Z,6.81
2023-01-11T14:05:52.700Z,6.78
2023-01-11T14:08:34.844Z,6.67
2023-01-11T14:11:23.293Z,6.58
2023-01-11T14:14:19.417Z,6.57
2023-01-11T14:17:12.701Z,6.53
2023-01-11T14:19:45.714Z,6.49
2023-01-11T14:22:21.586Z,6.31
2023-01-11T14:24:56.785Z,6.23
2023-01-11T14:28:30.948Z,6.15
2023-01-11T14:31:44.376Z,6.11
2023-01-11T14:34:45.903Z,6.01
2023-01-11T14:38:00.133Z,5.89
2023-01-11T14:40:46.534Z,5.84
2023-01-11T14:43:31.194Z,5.81
2023-01-11T14:46:13.921Z,5.81
2023-01-11T14:48:49.576Z,5.77
2023-01-11T14:51:34.079Z,5.74
2023-01-11T14:54:06.207Z,5.72
2023-01-11T14:56:51.345Z,5.52
2023-01-11T14:59:34.711Z,5.67
2023-01-11T15:02:25.930Z,5.65
2023-01-11T15:05:28.679Z,5.64
2023-01-11T15:08:11.807Z,5.64
2023-01-11T15:10:46.637Z,5.61
2023-01-11T15:13:21.070Z,5.59
2023-01-11T15:16:35.200Z,5.60
2023-01-11T15:19:07.161Z,5.56
2023-01-11T15:21:40.905Z,5.47
2023-01-11T15:24:22.868Z,5.49
2023-01-11T15:26:52.060Z,5.47
2023-01-11T15:29:27.564Z,5.45
2023-01-11T15:32:08.907Z,5.42
2023-01-11T15:34:45.376Z,5.37
2023-01-11T15:37:41.399Z,5.36
2023-01-11T15:40:19.533Z,5.28
2023-01-11T15:43:19.337Z,5.30
2023-01-11T15:46:38.827Z,5.26
2023-01-11T15:49:51.425Z,5.18
2023-01-11T15:52:56.628Z,5.14
2023-01-11T15:55:58.431Z,5.11
2023-01-11T15:58:52.601Z,5.01
2023-01-11T16:01:24.212Z,4.95
2023-01-11T16:04:06.021Z,4.90
2023-01-11T16:06:41.852Z,4.79
2023-01-11T16:09:38.379Z,4.80
2023-01-11T16:12:41.311Z,4.79
2023-01-11T16:15:29.409Z,4.79
2023-01-11T16:18:14.267Z,4.80
2023-01-11T16:20:45.287Z,4.75
2023-01-11T16:23:21.852Z,4.79
2023-01-11T16:25:56.741Z,4.78
2023-01-11T16:28:26.874Z,4.77
2023-01-11T16:31:00.140Z,4.77
2023-01-11T16:33:29.887Z,4.76
2023-01-11T16:36:10.731Z,4.75
2023-01-11T16:38:47.374Z,4.75
2023-01-11T16:41:16.933Z,4.73
2023-01-11T16:44:11.274Z,4.69
2023-01-11T16:47:17.126Z,4.68
2023-01-11T16:49:49.443Z,4.65
2023-01-11T16:52:39.318Z,4.63
2023-01-11T16:55:26.453Z,4.63
2023-01-11T16:57:58.950Z,4.63
2023-01-11T17:00:32.750Z,4.57
2023-01-11T17:03:06.026Z,4.55
2023-01-11T17:05:34.666Z,4.56
2023-01-11T17:08:26.123Z,4.55
2023-01-11T17:10:57.110Z,4.51
2023-01-11T17:13:53.539Z,4.49
2023-01-11T17:16:25.971Z,4.47
2023-01-11T17:18:55.651Z,4.36
2023-01-11T17:21:25.955Z,4.45
2023-01-11T17:23:58.342Z,4.47
2023-01-11T17:26:30.268Z,4.48
2023-01-11T17:29:02.726Z,4.48
2023-01-11T17:31:33.888Z,3.91
2023-01-11T17:34:05.542Z,4.43
2023-01-11T17:36:34.503Z,4.41
2023-01-11T17:39:03.719Z,4.44
2023-01-11T17:41:51.275Z,4.44
2023-01-11T17:44:38.765Z,4.43
2023-01-11T17:47:12.894Z,4.42
2023-01-11T17:49:41.716Z,4.43
2023-01-11T17:52:12.357Z,4.43
2023-01-11T17:54:41.083Z,4.48
2023-01-11T17:57:11.844Z,4.50
2023-01-11T17:59:40.813Z,4.53
2023-01-11T18:02:14.465Z,4.52
2023-01-11T18:04:44.933Z,4.53
2023-01-11T18:07:17.350Z,4.51
2023-01-11T18:09:47.144Z,4.55
2023-01-11T18:12:21.160Z,4.54
2023-01-11T18:14:51.652Z,4.60
2023-01-11T18:17:32.326Z,4.68
2023-01-11T18:20:01.172Z,4.76
2023-01-11T18:22:31.403Z,5.14
2023-01-11T18:25:00.583Z,5.29
2023-01-11T18:27:32.910Z,5.38
2023-01-11T18:30:06.361Z,5.58
2023-01-11T18:32:39.074Z,5.60
2023-01-11T18:35:17.648Z,5.50
2023-01-11T18:37:47.478Z,5.68
2023-01-11T18:40:17.306Z,5.69
2023-01-11T18:42:53.160Z,5.68
2023-01-11T18:45:25.191Z,5.69
2023-01-11T18:47:54.092Z,5.72
2023-01-11T18:50:24.079Z,5.70
2023-01-11T18:52:52.871Z,5.68
2023-01-11T18:55:21.538Z,5.64
2023-01-11T18:57:51.781Z,5.63
2023-01-11T19:00:20.990Z,5.63
2023-01-11T19:05:57.939Z,5.63
2023-01-11T19:08:26.477Z,5.72
2023-01-11T19:10:56.170Z,5.75
2023-01-11T19:13:26.961Z,5.78
2023-01-11T19:15:55.963Z,5.78
2023-01-11T19:18:26.868Z,5.79
2023-01-11T19:20:55.746Z,5.82
2023-01-11T19:23:29.749Z,5.82
2023-01-11T19:25:58.591Z,5.84
2023-01-11T19:28:28.783Z,5.85
2023-01-11T19:30:57.752Z,5.87
2023-01-11T19:33:26.880Z,5.87
2023-01-11T19:35:55.340Z,5.87
2023-01-11T19:38:49.439Z,5.85
2023-01-11T19:41:18.151Z,5.82
2023-01-11T19:44:03.915Z,5.73
2023-01-11T19:46:35.335Z,5.72
2023-01-11T19:49:06.540Z,5.72
2023-01-11T19:51:36.288Z,5.70
2023-01-11T19:54:04.887Z,5.67
2023-01-11T19:56:33.908Z,5.67
2023-01-11T19:59:04.207Z,5.67
2023-01-11T20:01:32.977Z,5.64
2023-01-11T20:04:04.812Z,5.65
2023-01-11T20:06:34.013Z,5.63
2023-01-11T20:09:03.276Z,5.65
2023-01-11T20:11:34.010Z,5.64
2023-01-11T20:14:04.456Z,5.65
2023-01-11T20:16:33.673Z,5.63
2023-01-11T20:19:05.943Z,5.63
2023-01-11T20:21:35.438Z,5.65
2023-01-11T20:24:04.517Z,5.71
2023-01-11T20:26:34.456Z,5.70
2023-01-11T20:29:06.725Z,5.76
2023-01-11T20:31:35.954Z,5.86
2023-01-11T20:34:07.736Z,5.93
2023-01-11T20:36:39.463Z,5.95
2023-01-11T20:39:09.728Z,6.02
2023-01-11T20:41:51.278Z,6.10
2023-01-11T20:44:35.831Z,6.11
2023-01-11T20:47:04.321Z,6.11
2023-01-11T20:49:32.955Z,6.09
2023-01-11T20:52:01.535Z,6.13
2023-01-11T20:54:32.121Z,6.07
2023-01-11T20:57:05.780Z,6.13
2023-01-11T20:59:36.296Z,6.16
2023-01-11T21:02:07.551Z,6.14
2023-01-11T21:04:36.647Z,6.17
2023-01-11T21:07:06.547Z,6.17
2023-01-11T21:09:42.258Z,6.24
2023-01-11T21:12:18.733Z,6.19
2023-01-11T21:14:48.672Z,6.21
2023-01-11T21:17:17.962Z,6.15
2023-01-11T21:19:46.430Z,6.17
2023-01-11T21:22:15.210Z,6.13
2023-01-11T21:24:44.675Z,6.06
2023-01-11T21:27:13.534Z,6.01
2023-01-11T21:29:42.221Z,5.98
2023-01-11T21:32:12.436Z,5.95
2023-01-11T21:34:42.455Z,5.93
2023-01-11T21:37:11.195Z,5.93
2023-01-11T21:39:39.654Z,5.90
2023-01-11T21:42:08.349Z,5.89
2023-01-11T21:44:37.120Z,5.89
2023-01-11T21:47:07.211Z,5.90
2023-01-11T21:49:37.273Z,5.91
2023-01-11T21:52:06.163Z,5.90
2023-01-11T21:54:34.915Z,5.92
2023-01-11T21:57:03.685Z,5.91
2023-01-11T21:59:51.740Z,5.92
2023-01-11T22:02:20.554Z,5.88
2023-01-11T22:04:54.053Z,5.83
2023-01-11T22:07:22.827Z,5.82
2023-01-11T22:10:04.078Z,5.83
2023-01-11T22:12:45.347Z,5.80
2023-01-11T22:15:14.072Z,5.81
2023-01-11T22:17:43.451Z,5.81
2023-01-11T22:20:17.850Z,5.80
2023-01-11T22:22:49.150Z,5.84
2023-01-11T22:25:18.074Z,5.85
2023-01-11T22:27:46.729Z,5.87
2023-01-11T22:30:16.022Z,5.88
2023-01-11T22:32:44.562Z,5.88
2023-01-11T22:35:14.599Z,5.88
2023-01-11T22:37:43.620Z,5.91
2023-01-11T22:40:13.357Z,5.96
2023-01-11T22:42:42.415Z,5.95
2023-01-11T22:45:12.362Z,5.98
2023-01-11T22:47:44.615Z,6.04
2023-01-11T22:50:14.993Z,6.03
2023-01-11T22:52:43.845Z,6.05
2023-01-11T22:55:12.844Z,6.09
2023-01-11T22:57:41.511Z,6.06
2023-01-11T23:00:12.500Z,6.13
2023-01-11T23:02:40.840Z,6.15
2023-01-11T23:05:09.909Z,6.14
2023-01-11T23:07:40.074Z,6.13
2023-01-11T23:10:10.368Z,6.14
2023-01-11T23:12:56.289Z,6.13
2023-01-11T23:15:24.892Z,6.11
2023-01-11T23:17:53.618Z,6.09
2023-01-11T23:20:22.940Z,6.09
2023-01-11T23:22:52.770Z,6.08
2023-01-11T23:25:21.491Z,6.14
2023-01-11T23:27:50.451Z,6.20
2023-01-11T23:30:19.830Z,6.14
2023-01-11T23:32:48.725Z,6.21
2023-01-11T23:35:17.580Z,6.25
2023-01-11T23:37:46.720Z,6.24
2023-01-11T23:40:17.311Z,6.25
2023-01-11T23:42:44.898Z,6.22
2023-01-11T23:45:13.743Z,6.21
2023-01-11T23:47:41.208Z,6.22
2023-01-11T23:50:11.214Z,6.23
2023-01-11T23:52:39.850Z,6.23
2023-01-11T23:55:09.311Z,6.21
2023-01-11T23:57:59.923Z,6.31
